Terminal Aerodrome Forecast
Issued by NWS

Home | Current Version | Previous Version | Text Only | Print | Product List | Glossary On
Versions: 1 2 3 4 5 6 7 8 9 10 11 12 13 14 15 16 17
000
FTAK31 PAJN 151749 RRA
TAFAGY
TAF
PAGY 151749Z 1518/1618 21015G25KT P6SM -SHRA SCT020 OVC050
     FM160000 21011KT P6SM OVC060
     FM160600 21018G28KT P6SM -RA BKN025 OVC035
     FM161300 21013G22KT 4SM RA BR SCT015 OVC025
      AMD LTD TO CLD VIS AND WIND=

USA.gov is the U.S. government's official web portal to all federal, state and local government web resources and services.